createdAt,value
2017-09-24T00:01:01.054Z,0
2017-09-24T00:02:02.480Z,0
2017-09-24T00:03:03.897Z,0
2017-09-24T00:04:05.315Z,0
2017-09-24T00:05:06.732Z,0
2017-09-24T00:06:08.147Z,0
2017-09-24T00:07:09.568Z,0
2017-09-24T00:08:10.990Z,0
2017-09-24T00:09:12.406Z,0
2017-09-24T00:10:13.821Z,0
2017-09-24T00:11:15.237Z,0
2017-09-24T00:12:16.656Z,0
2017-09-24T00:13:18.078Z,0
2017-09-24T00:14:19.498Z,0
2017-09-24T00:15:20.910Z,0
2017-09-24T00:16:22.324Z,0
2017-09-24T00:17:23.761Z,0
2017-09-24T00:18:25.169Z,0
2017-09-24T00:19:26.592Z,0
2017-09-24T00:20:28.009Z,0
2017-09-24T00:21:29.417Z,0
2017-09-24T00:22:30.833Z,0
2017-09-24T00:23:32.247Z,0
2017-09-24T00:24:33.665Z,0
2017-09-24T00:25:35.075Z,0
2017-09-24T00:26:36.490Z,0
2017-09-24T00:27:37.908Z,0
2017-09-24T00:28:39.330Z,0
2017-09-24T00:29:40.785Z,0
2017-09-24T00:30:42.197Z,0
2017-09-24T00:31:43.625Z,0
2017-09-24T00:32:45.050Z,0
2017-09-24T00:33:46.471Z,0
2017-09-24T00:34:47.890Z,0
2017-09-24T00:35:49.306Z,0
2017-09-24T00:36:50.720Z,0
2017-09-24T00:37:52.144Z,0
2017-09-24T00:38:53.565Z,0
2017-09-24T00:39:54.983Z,0
2017-09-24T00:40:56.400Z,0
2017-09-24T00:41:57.820Z,0
2017-09-24T00:42:59.249Z,0
2017-09-24T00:44:00.667Z,0
2017-09-24T00:45:02.089Z,0
2017-09-24T00:46:03.518Z,0
2017-09-24T00:47:04.935Z,0
2017-09-24T00:48:06.348Z,0
2017-09-24T00:49:07.781Z,0
2017-09-24T00:50:09.202Z,0
2017-09-24T00:51:10.618Z,0
2017-09-24T00:52:12.036Z,0
2017-09-24T00:53:13.456Z,0
2017-09-24T00:54:14.874Z,0
2017-09-24T00:55:16.288Z,0
2017-09-24T00:56:17.702Z,0
2017-09-24T00:57:19.122Z,0
2017-09-24T00:58:20.533Z,0
2017-09-24T00:59:21.955Z,0
2017-09-24T01:00:23.368Z,0
2017-09-24T01:01:24.792Z,0
2017-09-24T01:02:26.203Z,0
2017-09-24T01:03:27.620Z,0
2017-09-24T01:04:29.038Z,0
2017-09-24T01:05:30.455Z,0
2017-09-24T01:06:31.874Z,0
2017-09-24T01:07:33.290Z,0
2017-09-24T01:08:34.708Z,0
2017-09-24T01:09:36.128Z,0
2017-09-24T01:10:37.551Z,0
2017-09-24T01:11:38.976Z,0
2017-09-24T01:12:40.394Z,0
2017-09-24T01:13:41.812Z,0
2017-09-24T01:14:43.221Z,0
2017-09-24T01:15:44.634Z,0
2017-09-24T01:16:46.056Z,0
2017-09-24T01:17:47.473Z,0
2017-09-24T01:18:48.888Z,0
2017-09-24T01:19:50.304Z,0
2017-09-24T01:20:51.718Z,0
2017-09-24T01:21:53.133Z,0
2017-09-24T01:22:54.559Z,0
2017-09-24T01:23:55.973Z,0
2017-09-24T01:24:57.389Z,0
2017-09-24T01:25:58.800Z,0
2017-09-24T01:27:00.218Z,0
2017-09-24T01:28:01.640Z,0
2017-09-24T01:29:03.048Z,0
2017-09-24T01:30:04.460Z,0
2017-09-24T01:31:05.874Z,0
2017-09-24T01:32:07.299Z,0
2017-09-24T01:33:08.712Z,0
2017-09-24T01:34:10.127Z,0
2017-09-24T01:35:11.547Z,0
2017-09-24T01:36:12.980Z,0
2017-09-24T01:37:14.395Z,0
2017-09-24T01:38:15.811Z,0
2017-09-24T01:39:17.226Z,0
2017-09-24T01:40:18.648Z,0
2017-09-24T01:41:20.061Z,0
2017-09-24T01:42:21.470Z,0
2017-09-24T01:43:22.887Z,0
2017-09-24T01:44:24.309Z,0
2017-09-24T01:45:25.727Z,0
2017-09-24T01:46:27.138Z,0
2017-09-24T01:47:28.559Z,0
2017-09-24T01:48:29.976Z,0
2017-09-24T01:49:31.388Z,0
2017-09-24T01:50:32.804Z,0
2017-09-24T01:51:34.221Z,0
2017-09-24T01:52:35.630Z,0
2017-09-24T01:53:37.048Z,0
2017-09-24T01:54:38.467Z,0
2017-09-24T01:55:39.878Z,0
2017-09-24T01:56:41.291Z,0
2017-09-24T01:57:42.706Z,0
2017-09-24T01:58:44.121Z,0
2017-09-24T01:59:45.531Z,0
2017-09-24T02:00:46.947Z,0
2017-09-24T02:01:48.363Z,0
2017-09-24T02:02:49.774Z,0
2017-09-24T02:03:51.196Z,0
2017-09-24T02:04:52.613Z,0
2017-09-24T02:05:54.026Z,0
2017-09-24T02:06:55.445Z,0
2017-09-24T02:07:56.859Z,0
2017-09-24T02:08:58.275Z,0
2017-09-24T02:09:59.688Z,0
2017-09-24T02:11:01.107Z,0
2017-09-24T02:12:02.529Z,0
2017-09-24T02:13:03.949Z,0
2017-09-24T02:14:05.363Z,0
2017-09-24T02:15:06.779Z,0
2017-09-24T02:16:08.192Z,0
2017-09-24T02:17:09.608Z,0
2017-09-24T02:18:11.027Z,0
2017-09-24T02:19:12.437Z,0
2017-09-24T02:20:13.848Z,0
2017-09-24T02:21:15.268Z,0
2017-09-24T02:22:16.688Z,0
2017-09-24T02:23:18.157Z,0
2017-09-24T02:24:19.577Z,0
2017-09-24T02:25:20.993Z,0
2017-09-24T02:26:22.481Z,0
2017-09-24T02:27:23.896Z,0
2017-09-24T02:28:25.309Z,0
2017-09-24T02:29:26.730Z,0
2017-09-24T02:30:28.150Z,0
2017-09-24T02:31:29.577Z,0
2017-09-24T02:32:30.991Z,0
2017-09-24T02:33:32.408Z,0
2017-09-24T02:34:33.833Z,0
2017-09-24T02:35:35.260Z,0
2017-09-24T02:36:36.677Z,0
2017-09-24T02:37:38.095Z,0
2017-09-24T02:38:39.515Z,0
2017-09-24T02:39:40.932Z,0
2017-09-24T02:40:42.339Z,0
2017-09-24T02:41:43.751Z,0
2017-09-24T02:42:45.167Z,0
2017-09-24T02:43:46.585Z,0
2017-09-24T02:44:48.002Z,0
2017-09-24T02:45:49.419Z,0
2017-09-24T02:46:50.838Z,0
2017-09-24T02:47:52.249Z,0
2017-09-24T02:48:53.669Z,0
2017-09-24T02:49:55.086Z,0
2017-09-24T02:50:56.503Z,0
2017-09-24T02:51:57.919Z,0
2017-09-24T02:52:59.337Z,0
2017-09-24T02:54:00.755Z,0
2017-09-24T02:55:02.176Z,0
2017-09-24T02:56:03.593Z,0
2017-09-24T02:57:05.017Z,0
2017-09-24T02:58:06.442Z,0
2017-09-24T02:59:07.860Z,0
2017-09-24T03:00:09.292Z,0
2017-09-24T03:01:10.712Z,0
2017-09-24T03:02:12.123Z,0
2017-09-24T03:03:13.543Z,0
2017-09-24T03:04:14.961Z,0
2017-09-24T03:05:16.379Z,0
2017-09-24T03:06:17.809Z,0
2017-09-24T03:07:19.216Z,0
2017-09-24T03:08:20.636Z,0
2017-09-24T03:09:22.114Z,0
2017-09-24T03:10:23.523Z,0
2017-09-24T03:11:24.935Z,0
2017-09-24T03:12:26.359Z,0
2017-09-24T03:13:27.779Z,0
2017-09-24T03:14:29.191Z,0
2017-09-24T03:15:30.618Z,0
2017-09-24T03:16:32.097Z,0
2017-09-24T03:17:33.509Z,0
2017-09-24T03:18:34.924Z,0
2017-09-24T03:19:36.349Z,0
2017-09-24T03:20:37.769Z,0
2017-09-24T03:21:39.181Z,0
2017-09-24T03:22:40.599Z,0
2017-09-24T03:23:42.017Z,0
2017-09-24T03:24:43.434Z,0
2017-09-24T03:25:44.845Z,0
2017-09-24T03:26:46.258Z,0
2017-09-24T03:27:47.665Z,0
2017-09-24T03:28:49.085Z,0
2017-09-24T03:29:50.507Z,0
2017-09-24T03:30:51.922Z,0
2017-09-24T03:31:53.332Z,0
2017-09-24T03:32:54.747Z,0
2017-09-24T03:33:56.164Z,0
2017-09-24T03:34:57.578Z,0
2017-09-24T03:35:59.002Z,0
2017-09-24T03:37:00.426Z,0
2017-09-24T03:38:01.840Z,0
2017-09-24T03:39:03.251Z,0
2017-09-24T03:40:04.666Z,0
2017-09-24T03:41:06.079Z,0
2017-09-24T03:42:07.494Z,0
2017-09-24T03:43:08.914Z,0
2017-09-24T03:44:10.342Z,0
2017-09-24T03:45:11.750Z,0
2017-09-24T03:46:13.161Z,0
2017-09-24T03:47:14.579Z,0
2017-09-24T03:48:15.988Z,0
2017-09-24T03:49:17.405Z,0
2017-09-24T03:50:18.824Z,0
2017-09-24T03:51:20.241Z,0
2017-09-24T03:52:21.658Z,0
2017-09-24T03:53:23.068Z,0
2017-09-24T03:54:24.487Z,0
2017-09-24T03:55:25.905Z,0
2017-09-24T03:56:27.322Z,0
2017-09-24T03:57:28.741Z,0
2017-09-24T03:58:30.163Z,0
2017-09-24T03:59:31.576Z,0
2017-09-24T04:00:32.991Z,0
2017-09-24T04:01:34.408Z,0
2017-09-24T04:02:35.826Z,0
2017-09-24T04:03:37.236Z,0
2017-09-24T04:04:38.648Z,0
2017-09-24T04:05:40.066Z,0
2017-09-24T04:06:41.494Z,0
2017-09-24T04:07:42.911Z,0
2017-09-24T04:08:44.328Z,0
2017-09-24T04:09:45.742Z,0
2017-09-24T04:10:47.158Z,0
2017-09-24T04:11:48.569Z,0
2017-09-24T04:12:49.977Z,0
2017-09-24T04:13:51.400Z,0
2017-09-24T04:14:52.821Z,0
2017-09-24T04:15:54.237Z,0
2017-09-24T04:16:55.651Z,0
2017-09-24T04:17:57.061Z,0
2017-09-24T04:18:58.482Z,0
2017-09-24T04:19:59.908Z,0
2017-09-24T04:21:01.328Z,0
2017-09-24T04:22:02.749Z,0
2017-09-24T04:23:04.172Z,0
2017-09-24T04:24:05.583Z,0
2017-09-24T04:25:07.009Z,0
2017-09-24T04:26:08.508Z,0
2017-09-24T04:27:09.924Z,0
2017-09-24T04:28:11.341Z,0
2017-09-24T04:29:12.762Z,0
2017-09-24T04:30:14.193Z,0
2017-09-24T04:31:15.609Z,0
2017-09-24T04:32:17.029Z,0
2017-09-24T04:33:18.439Z,0
2017-09-24T04:34:19.866Z,0
2017-09-24T04:35:21.283Z,0
2017-09-24T04:36:22.690Z,0
2017-09-24T04:37:24.106Z,0
2017-09-24T04:38:25.523Z,0
2017-09-24T04:39:26.937Z,0
2017-09-24T04:40:28.350Z,0
2017-09-24T04:41:29.770Z,0
2017-09-24T04:42:31.192Z,0
2017-09-24T04:43:32.613Z,0
2017-09-24T04:44:34.030Z,0
2017-09-24T04:45:35.449Z,0
2017-09-24T04:46:36.862Z,0
2017-09-24T04:47:38.278Z,0
2017-09-24T04:48:39.686Z,0
2017-09-24T04:49:41.101Z,0
2017-09-24T04:50:42.522Z,0
2017-09-24T04:51:43.941Z,0
2017-09-24T04:52:45.359Z,0
2017-09-24T04:53:46.778Z,0
2017-09-24T04:54:48.192Z,0
2017-09-24T04:55:49.611Z,0
2017-09-24T04:56:51.025Z,0
2017-09-24T04:57:52.439Z,0
2017-09-24T04:58:53.852Z,0
2017-09-24T04:59:55.269Z,0
2017-09-24T05:00:56.685Z,0
2017-09-24T05:01:58.102Z,0
2017-09-24T05:02:59.514Z,0
2017-09-24T05:04:00.986Z,4
2017-09-24T05:05:02.404Z,0
2017-09-24T05:06:03.819Z,0
2017-09-24T05:07:05.235Z,4
2017-09-24T05:08:06.738Z,0
2017-09-24T05:09:08.237Z,4
2017-09-24T05:10:09.659Z,4
2017-09-24T05:11:11.072Z,4
2017-09-24T05:12:12.505Z,4
2017-09-24T05:13:13.911Z,4
2017-09-24T05:14:15.335Z,8
2017-09-24T05:15:16.746Z,8
2017-09-24T05:16:18.159Z,8
2017-09-24T05:17:19.578Z,8
2017-09-24T05:18:20.991Z,8
2017-09-24T05:19:22.412Z,12
2017-09-24T05:20:23.830Z,12
2017-09-24T05:21:25.250Z,12
2017-09-24T05:22:26.668Z,16
2017-09-24T05:23:28.089Z,12
2017-09-24T05:24:29.508Z,16
2017-09-24T05:25:30.924Z,20
2017-09-24T05:26:32.344Z,20
2017-09-24T05:27:33.762Z,24
2017-09-24T05:28:35.189Z,24
2017-09-24T05:29:36.607Z,24
2017-09-24T05:30:38.026Z,28
2017-09-24T05:31:39.455Z,28
2017-09-24T05:32:40.869Z,28
2017-09-24T05:33:42.285Z,32
2017-09-24T05:34:43.698Z,32
2017-09-24T05:35:45.110Z,36
2017-09-24T05:36:46.532Z,36
2017-09-24T05:37:47.947Z,36
2017-09-24T05:38:49.366Z,36
2017-09-24T05:39:50.783Z,40
2017-09-24T05:40:52.209Z,40
2017-09-24T05:41:53.619Z,40
2017-09-24T05:42:55.047Z,40
2017-09-24T05:43:56.463Z,44
2017-09-24T05:44:57.883Z,44
2017-09-24T05:45:59.307Z,44
2017-09-24T05:47:00.720Z,48
2017-09-24T05:48:02.139Z,52
2017-09-24T05:49:03.556Z,52
2017-09-24T05:50:04.973Z,56
2017-09-24T05:51:06.482Z,56
2017-09-24T05:52:07.887Z,60
2017-09-24T05:53:09.300Z,64
2017-09-24T05:54:10.720Z,60
2017-09-24T05:55:12.231Z,68
2017-09-24T05:56:13.653Z,68
2017-09-24T05:57:15.073Z,68
2017-09-24T05:58:16.494Z,72
2017-09-24T05:59:17.917Z,76
2017-09-24T06:00:19.344Z,76
2017-09-24T06:01:20.761Z,80
2017-09-24T06:02:22.177Z,84
2017-09-24T06:03:23.599Z,88
2017-09-24T06:04:25.013Z,92
2017-09-24T06:05:26.440Z,92
2017-09-24T06:06:27.848Z,96
2017-09-24T06:07:29.272Z,100
2017-09-24T06:08:30.690Z,104
2017-09-24T06:09:32.101Z,112
2017-09-24T06:10:33.520Z,112
2017-09-24T06:11:34.931Z,120
2017-09-24T06:12:36.358Z,128
2017-09-24T06:13:37.780Z,132
2017-09-24T06:14:39.205Z,136
2017-09-24T06:15:40.621Z,140
2017-09-24T06:16:42.049Z,144
2017-09-24T06:17:43.472Z,148
2017-09-24T06:18:44.895Z,152
2017-09-24T06:19:46.311Z,156
2017-09-24T06:20:47.735Z,156
2017-09-24T06:21:49.150Z,160
2017-09-24T06:22:50.573Z,164
2017-09-24T06:23:51.992Z,168
2017-09-24T06:24:53.411Z,172
2017-09-24T06:25:54.831Z,176
2017-09-24T06:26:56.261Z,176
2017-09-24T06:27:57.689Z,184
2017-09-24T06:28:59.111Z,188
2017-09-24T06:30:00.527Z,188
2017-09-24T06:31:01.949Z,196
2017-09-24T06:32:03.367Z,196
2017-09-24T06:33:04.794Z,200
2017-09-24T06:34:06.219Z,204
2017-09-24T06:35:07.632Z,204
2017-09-24T06:36:09.061Z,204
2017-09-24T06:37:10.487Z,204
2017-09-24T06:38:11.908Z,204
2017-09-24T06:39:13.332Z,208
2017-09-24T06:40:14.759Z,212
2017-09-24T06:41:16.187Z,208
2017-09-24T06:42:17.616Z,208
2017-09-24T06:43:19.030Z,212
2017-09-24T06:44:20.445Z,212
2017-09-24T06:45:21.875Z,216
2017-09-24T06:46:23.312Z,220
2017-09-24T06:47:24.733Z,228
2017-09-24T06:48:26.141Z,232
2017-09-24T06:49:27.566Z,236
2017-09-24T06:50:28.978Z,244
2017-09-24T06:51:30.402Z,252
2017-09-24T06:52:31.815Z,264
2017-09-24T06:53:33.245Z,272
2017-09-24T06:54:34.669Z,280
2017-09-24T06:55:36.096Z,288
2017-09-24T06:56:37.507Z,296
2017-09-24T06:57:38.930Z,300
2017-09-24T06:58:40.348Z,304
2017-09-24T06:59:41.764Z,316
2017-09-24T07:00:43.186Z,320
2017-09-24T07:01:44.610Z,324
2017-09-24T07:02:46.028Z,328
2017-09-24T07:03:47.446Z,328
2017-09-24T07:04:48.873Z,332
2017-09-24T07:05:50.289Z,332
2017-09-24T07:06:51.711Z,340
2017-09-24T07:07:53.133Z,344
2017-09-24T07:08:54.553Z,348
2017-09-24T07:09:55.975Z,356
2017-09-24T07:10:57.393Z,364
2017-09-24T07:11:58.811Z,372
2017-09-24T07:13:00.231Z,376
2017-09-24T07:14:01.649Z,388
2017-09-24T07:15:03.076Z,396
2017-09-24T07:16:04.492Z,404
2017-09-24T07:17:05.909Z,416
2017-09-24T07:18:07.329Z,428
2017-09-24T07:19:08.753Z,436
2017-09-24T07:20:10.165Z,440
2017-09-24T07:21:11.589Z,452
2017-09-24T07:22:13.013Z,456
2017-09-24T07:23:14.435Z,460
2017-09-24T07:24:15.863Z,464
2017-09-24T07:25:17.285Z,472
2017-09-24T07:26:18.713Z,472
2017-09-24T07:27:20.240Z,480
2017-09-24T07:28:21.664Z,488
2017-09-24T07:29:23.091Z,492
2017-09-24T07:30:24.518Z,496
2017-09-24T07:31:25.926Z,504
2017-09-24T07:32:27.349Z,516
2017-09-24T07:33:28.771Z,520
2017-09-24T07:34:30.196Z,532
2017-09-24T07:35:31.614Z,540
2017-09-24T07:36:33.031Z,560
2017-09-24T07:37:34.459Z,576
2017-09-24T07:38:35.869Z,596
2017-09-24T07:39:37.293Z,624
2017-09-24T07:40:38.718Z,640
2017-09-24T07:41:40.148Z,664
2017-09-24T07:42:41.571Z,692
2017-09-24T07:43:43.001Z,716
2017-09-24T07:44:44.420Z,736
2017-09-24T07:45:45.844Z,764
2017-09-24T07:46:47.274Z,788
2017-09-24T07:47:48.690Z,804
2017-09-24T07:48:50.112Z,816
2017-09-24T07:49:51.536Z,832
2017-09-24T07:50:52.954Z,840
2017-09-24T07:51:54.375Z,852
2017-09-24T07:52:55.805Z,860
2017-09-24T07:53:57.224Z,872
2017-09-24T07:54:58.647Z,880
2017-09-24T07:56:00.068Z,892
2017-09-24T07:57:01.491Z,900
2017-09-24T07:58:02.910Z,904
2017-09-24T07:59:04.332Z,908
2017-09-24T08:00:05.752Z,916
2017-09-24T08:01:07.181Z,920
2017-09-24T08:02:08.594Z,920
2017-09-24T08:03:10.017Z,916
2017-09-24T08:04:11.447Z,924
2017-09-24T08:05:12.865Z,920
2017-09-24T08:06:14.287Z,924
2017-09-24T08:07:15.714Z,936
2017-09-24T08:08:17.132Z,944
2017-09-24T08:09:18.548Z,952
2017-09-24T08:10:19.968Z,960
2017-09-24T08:11:21.388Z,960
2017-09-24T08:12:22.884Z,956
2017-09-24T08:13:24.276Z,960
2017-09-24T08:14:25.697Z,968
2017-09-24T08:15:27.112Z,980
2017-09-24T08:16:28.531Z,988
2017-09-24T08:17:29.957Z,1000
2017-09-24T08:18:31.381Z,1024
2017-09-24T08:19:32.808Z,1044
2017-09-24T08:20:34.228Z,1056
2017-09-24T08:21:35.655Z,1060
2017-09-24T08:22:37.074Z,1068
2017-09-24T08:23:38.501Z,1080
2017-09-24T08:24:39.924Z,1084
2017-09-24T08:25:41.351Z,1088
2017-09-24T08:26:42.773Z,1088
2017-09-24T08:27:44.208Z,1084
2017-09-24T08:28:45.640Z,1088
2017-09-24T08:29:47.067Z,1092
2017-09-24T08:30:48.489Z,1092
2017-09-24T08:31:49.907Z,1100
2017-09-24T08:32:51.332Z,1104
2017-09-24T08:33:52.753Z,1112
2017-09-24T08:34:54.172Z,1112
2017-09-24T08:35:55.595Z,1124
2017-09-24T08:36:57.019Z,1128
2017-09-24T08:37:58.445Z,1140
2017-09-24T08:38:59.856Z,1156
2017-09-24T08:40:01.283Z,1188
2017-09-24T08:41:02.707Z,1220
2017-09-24T08:42:04.139Z,1264
2017-09-24T08:43:05.563Z,1316
2017-09-24T08:44:06.981Z,1388
2017-09-24T08:45:08.402Z,1404
2017-09-24T08:46:09.828Z,1416
2017-09-24T08:47:11.255Z,1432
2017-09-24T08:48:12.669Z,1460
2017-09-24T08:49:14.098Z,1492
2017-09-24T08:50:15.525Z,1532
2017-09-24T08:51:16.950Z,1560
2017-09-24T08:52:18.374Z,1588
2017-09-24T08:53:19.798Z,1604
2017-09-24T08:54:21.221Z,1616
2017-09-24T08:55:22.650Z,1624
2017-09-24T08:56:24.087Z,1640
2017-09-24T08:57:25.525Z,1644
2017-09-24T08:58:26.957Z,1668
2017-09-24T08:59:28.385Z,1716
2017-09-24T09:00:29.802Z,1748
2017-09-24T09:01:31.235Z,1800
2017-09-24T09:02:32.663Z,1864
2017-09-24T09:03:34.087Z,1900
2017-09-24T09:04:35.514Z,1944
2017-09-24T09:05:36.942Z,2092
2017-09-24T09:06:38.370Z,2112
2017-09-24T09:07:39.787Z,2208
2017-09-24T09:08:41.227Z,2288
2017-09-24T09:09:42.650Z,2256
2017-09-24T09:10:44.076Z,2160
2017-09-24T09:11:45.513Z,2152
2017-09-24T09:12:47.025Z,2020
2017-09-24T09:13:48.508Z,1888
2017-09-24T09:14:49.939Z,1848
2017-09-24T09:15:51.359Z,1836
2017-09-24T09:16:52.787Z,1788
2017-09-24T09:17:54.212Z,1788
2017-09-24T09:18:55.635Z,1792
2017-09-24T09:19:57.063Z,1812
2017-09-24T09:20:58.496Z,1836
2017-09-24T09:21:59.915Z,1832
2017-09-24T09:23:01.337Z,1792
2017-09-24T09:24:02.766Z,1740
2017-09-24T09:25:04.192Z,1696
2017-09-24T09:26:05.609Z,1652
2017-09-24T09:27:07.042Z,1620
2017-09-24T09:28:08.471Z,1564
2017-09-24T09:29:09.901Z,1512
2017-09-24T09:30:11.329Z,1484
2017-09-24T09:31:12.755Z,1520
2017-09-24T09:32:14.180Z,1740
2017-09-24T09:33:15.611Z,1860
2017-09-24T09:34:17.045Z,1792
2017-09-24T09:35:18.469Z,1652
2017-09-24T09:36:19.896Z,1648
2017-09-24T09:37:21.321Z,1672
2017-09-24T09:38:22.746Z,1832
2017-09-24T09:39:24.170Z,1868
2017-09-24T09:40:25.615Z,1960
2017-09-24T09:41:27.035Z,2036
2017-09-24T09:42:28.461Z,1792
2017-09-24T09:43:29.883Z,1944
2017-09-24T09:44:31.313Z,2020
2017-09-24T09:45:32.731Z,2032
2017-09-24T09:46:34.153Z,2036
2017-09-24T09:47:35.583Z,2116
2017-09-24T09:48:37.009Z,2128
2017-09-24T09:49:38.435Z,2144
2017-09-24T09:50:39.874Z,2156
2017-09-24T09:51:41.299Z,2160
2017-09-24T09:52:42.720Z,2140
2017-09-24T09:53:44.141Z,2140
2017-09-24T09:54:45.578Z,2172
2017-09-24T09:55:47.004Z,2196
2017-09-24T09:56:48.439Z,2192
2017-09-24T09:57:49.861Z,2208
2017-09-24T09:58:51.292Z,2220
2017-09-24T09:59:52.707Z,2224
2017-09-24T10:00:54.136Z,2264
2017-09-24T10:01:55.564Z,2288
2017-09-24T10:02:56.982Z,2292
2017-09-24T10:03:58.413Z,2296
2017-09-24T10:04:59.833Z,2264
2017-09-24T10:06:01.260Z,2232
2017-09-24T10:07:02.685Z,2216
2017-09-24T10:08:04.110Z,2228
2017-09-24T10:09:05.541Z,2432
2017-09-24T10:10:06.969Z,2444
2017-09-24T10:11:08.421Z,2440
2017-09-24T10:12:09.856Z,2480
2017-09-24T10:13:11.288Z,2516
2017-09-24T10:14:12.720Z,2520
2017-09-24T10:15:14.149Z,2504
2017-09-24T10:16:15.574Z,2492
2017-09-24T10:17:17.014Z,2460
2017-09-24T10:18:18.436Z,2484
2017-09-24T10:19:19.867Z,2540
2017-09-24T10:20:21.295Z,2556
2017-09-24T10:21:22.718Z,2588
2017-09-24T10:22:24.145Z,2684
2017-09-24T10:23:25.570Z,2696
2017-09-24T10:24:26.995Z,2664
2017-09-24T10:25:28.438Z,2636
2017-09-24T10:26:29.861Z,2716
2017-09-24T10:27:31.287Z,2812
2017-09-24T10:28:32.742Z,2780
2017-09-24T10:29:34.170Z,2948
2017-09-24T10:30:35.594Z,2948
2017-09-24T10:31:37.022Z,2848
2017-09-24T10:32:38.444Z,2828
2017-09-24T10:33:39.866Z,2960
2017-09-24T10:34:41.295Z,3068
2017-09-24T10:35:42.731Z,3192
2017-09-24T10:36:44.145Z,3208
2017-09-24T10:37:45.569Z,3172
2017-09-24T10:38:46.997Z,3180
2017-09-24T10:39:48.429Z,2948
2017-09-24T10:40:49.875Z,2712
2017-09-24T10:41:51.316Z,3288
2017-09-24T10:42:52.743Z,3136
2017-09-24T10:43:54.171Z,3264
2017-09-24T10:44:55.598Z,3428
2017-09-24T10:45:57.029Z,3228
2017-09-24T10:46:58.464Z,3352
2017-09-24T10:47:59.896Z,3432
2017-09-24T10:49:01.315Z,3460
2017-09-24T10:50:02.772Z,3524
2017-09-24T10:51:04.195Z,3728
2017-09-24T10:52:05.639Z,3896
2017-09-24T10:53:07.061Z,3880
2017-09-24T10:54:08.486Z,3792
2017-09-24T10:55:09.917Z,3476
2017-09-24T10:56:11.344Z,3464
2017-09-24T10:57:12.771Z,3488
2017-09-24T10:58:14.198Z,3800
2017-09-24T10:59:15.627Z,3980
2017-09-24T11:00:17.052Z,3964
2017-09-24T11:01:18.512Z,3856
2017-09-24T11:02:19.935Z,3916
2017-09-24T11:03:21.357Z,3960
2017-09-24T11:04:22.794Z,3916
2017-09-24T11:05:24.224Z,3936
2017-09-24T11:06:25.645Z,3948
2017-09-24T11:07:27.066Z,4096
2017-09-24T11:08:28.507Z,4040
2017-09-24T11:09:29.934Z,3708
2017-09-24T11:10:31.355Z,3696
2017-09-24T11:11:32.783Z,3744
2017-09-24T11:12:34.214Z,3576
2017-09-24T11:13:35.643Z,4016
2017-09-24T11:14:37.070Z,4240
2017-09-24T11:15:38.511Z,4236
2017-09-24T11:16:39.939Z,4292
2017-09-24T11:17:41.363Z,4328
2017-09-24T11:18:42.811Z,4308
2017-09-24T11:19:44.231Z,4276
2017-09-24T11:20:45.663Z,4192
2017-09-24T11:21:47.093Z,3620
2017-09-24T11:22:48.526Z,3352
2017-09-24T11:23:49.956Z,3012
2017-09-24T11:24:51.386Z,2872
2017-09-24T11:25:52.834Z,3276
2017-09-24T11:26:54.262Z,2880
2017-09-24T11:27:55.691Z,2896
2017-09-24T11:28:57.122Z,2992
2017-09-24T11:29:58.561Z,3380
2017-09-24T11:30:59.985Z,4376
2017-09-24T11:32:01.416Z,4724
2017-09-24T11:33:02.958Z,4648
2017-09-24T11:34:04.421Z,4616
2017-09-24T11:35:05.855Z,4712
2017-09-24T11:36:07.292Z,4524
2017-09-24T11:37:08.751Z,4452
2017-09-24T11:38:10.183Z,3968
2017-09-24T11:39:11.613Z,3372
2017-09-24T11:40:13.046Z,2780
2017-09-24T11:41:14.471Z,2292
2017-09-24T11:42:15.909Z,2252
2017-09-24T11:43:17.339Z,2428
2017-09-24T11:44:18.775Z,2220
2017-09-24T11:45:20.301Z,1964
2017-09-24T11:46:21.736Z,1820
2017-09-24T11:47:23.170Z,1716
2017-09-24T11:48:24.606Z,2768
2017-09-24T11:49:26.039Z,3764
2017-09-24T11:50:27.471Z,3876
2017-09-24T11:51:28.900Z,3572
2017-09-24T11:52:30.349Z,3344
2017-09-24T11:53:31.770Z,4020
2017-09-24T11:54:33.205Z,3748
2017-09-24T11:55:34.644Z,3024
2017-09-24T11:56:36.080Z,2904
2017-09-24T11:57:37.507Z,2884
2017-09-24T11:58:38.935Z,3368
2017-09-24T11:59:40.366Z,3036
2017-09-24T12:00:41.796Z,3904
2017-09-24T12:01:43.234Z,4104
2017-09-24T12:02:44.657Z,4428
2017-09-24T12:03:46.113Z,4128
2017-09-24T12:04:47.513Z,4880
2017-09-24T12:05:48.932Z,4624
2017-09-24T12:06:50.359Z,5084
2017-09-24T12:07:51.785Z,5376
2017-09-24T12:08:53.212Z,5352
2017-09-24T12:09:54.638Z,5320
2017-09-24T12:10:56.060Z,6288
2017-09-24T12:11:57.488Z,5860
2017-09-24T12:12:58.914Z,5948
2017-09-24T12:14:00.343Z,5748
2017-09-24T12:15:01.773Z,5500
2017-09-24T12:16:03.209Z,5468
2017-09-24T12:17:04.635Z,5612
2017-09-24T12:18:06.064Z,5708
2017-09-24T12:19:07.497Z,5808
2017-09-24T12:20:08.933Z,5816
2017-09-24T12:21:10.373Z,5924
2017-09-24T12:22:11.799Z,5980
2017-09-24T12:23:13.233Z,6052
2017-09-24T12:24:14.699Z,4544
2017-09-24T12:25:16.123Z,6196
2017-09-24T12:26:17.552Z,6280
2017-09-24T12:27:18.972Z,6240
2017-09-24T12:28:20.399Z,6248
2017-09-24T12:29:21.829Z,6244
2017-09-24T12:30:23.262Z,6252
2017-09-24T12:31:24.707Z,6384
2017-09-24T12:32:26.136Z,6084
2017-09-24T12:33:27.560Z,6128
2017-09-24T12:34:28.987Z,5960
2017-09-24T12:35:30.424Z,2768
2017-09-24T12:36:31.862Z,5776
2017-09-24T12:37:33.287Z,5700
2017-09-24T12:38:34.710Z,5436
2017-09-24T12:39:36.142Z,5424
2017-09-24T12:40:37.566Z,5664
2017-09-24T12:41:39.005Z,5908
2017-09-24T12:42:40.441Z,6240
2017-09-24T12:43:41.865Z,6416
2017-09-24T12:44:43.283Z,6220
2017-09-24T12:45:44.711Z,6092
2017-09-24T12:46:46.149Z,6320
2017-09-24T12:47:47.582Z,6496
2017-09-24T12:48:49.014Z,6632
2017-09-24T12:49:50.445Z,6540
2017-09-24T12:50:51.871Z,6344
2017-09-24T12:51:53.313Z,6668
2017-09-24T12:52:54.748Z,6864
2017-09-24T12:53:56.176Z,6864
2017-09-24T12:54:57.604Z,2104
2017-09-24T12:55:59.041Z,1240
2017-09-24T12:57:00.475Z,6936
2017-09-24T12:58:01.896Z,6908
2017-09-24T12:59:03.326Z,7404
2017-09-24T13:00:04.764Z,8992
2017-09-24T13:01:06.199Z,24768
2017-09-24T13:02:07.635Z,33376
2017-09-24T13:03:09.087Z,39328
2017-09-24T13:04:10.522Z,40512
2017-09-24T13:05:11.955Z,39648
2017-09-24T13:06:13.394Z,40768
2017-09-24T13:07:14.849Z,40992
2017-09-24T13:08:16.282Z,38592
2017-09-24T13:09:17.714Z,10936
2017-09-24T13:10:19.157Z,16544
2017-09-24T13:11:20.620Z,8484
2017-09-24T13:12:22.016Z,39680
2017-09-24T13:13:23.447Z,41952
2017-09-24T13:14:24.984Z,18272
2017-09-24T13:15:26.417Z,36256
2017-09-24T13:16:27.861Z,28320
2017-09-24T13:17:29.299Z,6936
2017-09-24T13:18:30.741Z,8828
2017-09-24T13:19:32.173Z,35712
2017-09-24T13:20:33.609Z,6188
2017-09-24T13:21:35.043Z,14848
2017-09-24T13:22:36.501Z,7448
2017-09-24T13:23:37.933Z,20544
2017-09-24T13:24:39.367Z,6964
2017-09-24T13:25:40.844Z,41920
2017-09-24T13:26:42.278Z,45568
2017-09-24T13:27:43.720Z,43968
2017-09-24T13:28:45.149Z,39936
2017-09-24T13:29:47.294Z,13244
2017-09-24T13:30:48.037Z,43200
2017-09-24T13:31:49.473Z,36128
2017-09-24T13:32:50.966Z,55776
2017-09-24T13:33:52.409Z,58752
2017-09-24T13:34:53.849Z,54368
2017-09-24T13:35:55.309Z,53984
2017-09-24T13:36:56.742Z,53856
2017-09-24T13:37:58.175Z,50912
2017-09-24T13:38:59.606Z,49984
2017-09-24T13:40:01.040Z,56864
2017-09-24T13:41:02.486Z,48960
2017-09-24T13:42:03.911Z,44000
2017-09-24T13:43:05.342Z,34240
2017-09-24T13:44:06.777Z,25536
2017-09-24T13:45:08.223Z,11848
2017-09-24T13:46:09.661Z,8348
2017-09-24T13:47:11.097Z,6364
2017-09-24T13:48:12.528Z,5860
2017-09-24T13:49:13.954Z,5668
2017-09-24T13:50:15.387Z,5368
2017-09-24T13:51:16.833Z,5408
2017-09-24T13:52:18.272Z,5736
2017-09-24T13:53:19.697Z,5696
2017-09-24T13:54:21.133Z,5760
2017-09-24T13:55:22.571Z,4836
2017-09-24T13:56:24.007Z,3412
2017-09-24T13:57:25.437Z,2188
2017-09-24T13:58:26.863Z,1832
2017-09-24T13:59:28.305Z,2120
2017-09-24T14:00:29.749Z,2348
2017-09-24T14:01:31.183Z,2264
2017-09-24T14:02:32.621Z,2096
2017-09-24T14:03:34.061Z,1912
2017-09-24T14:04:35.505Z,1756
2017-09-24T14:05:36.936Z,1628
2017-09-24T14:06:38.370Z,1680
2017-09-24T14:07:39.798Z,1944
2017-09-24T14:08:41.226Z,2112
2017-09-24T14:09:42.670Z,2364
2017-09-24T14:10:44.096Z,2656
2017-09-24T14:11:45.524Z,2996
2017-09-24T14:12:46.949Z,3432
2017-09-24T14:13:48.392Z,3552
2017-09-24T14:14:49.862Z,3692
2017-09-24T14:15:51.246Z,3760